createdAt,value
2018-05-08T00:00:08.232Z,0.00
2018-05-08T00:01:08.226Z,0.00
2018-05-08T00:02:08.221Z,0.00
2018-05-08T00:03:08.220Z,0.00
2018-05-08T00:04:08.208Z,0.00
2018-05-08T00:05:08.202Z,0.00
2018-05-08T00:06:08.195Z,0.00
2018-05-08T00:07:08.189Z,0.00
2018-05-08T00:08:08.183Z,0.00
2018-05-08T00:09:08.177Z,0.00
2018-05-08T00:10:08.171Z,0.00
2018-05-08T00:11:08.165Z,0.00
2018-05-08T00:12:08.159Z,0.00
2018-05-08T00:13:08.153Z,0.00
2018-05-08T00:14:08.147Z,0.00
2018-05-08T00:15:08.144Z,0.00
2018-05-08T00:16:08.134Z,0.00
2018-05-08T00:17:08.128Z,0.00
2018-05-08T00:18:08.122Z,0.00
2018-05-08T00:19:08.115Z,0.00
2018-05-08T00:20:08.110Z,0.00
2018-05-08T00:21:08.103Z,0.00
2018-05-08T00:22:08.098Z,0.00
2018-05-08T00:23:08.091Z,0.00
2018-05-08T00:24:08.085Z,0.00
2018-05-08T00:25:08.079Z,0.00
2018-05-08T00:26:08.073Z,0.00
2018-05-08T00:27:08.066Z,0.00
2018-05-08T00:28:08.146Z,0.00
2018-05-08T00:29:08.054Z,0.00
2018-05-08T00:30:08.049Z,0.00
2018-05-08T00:31:08.041Z,0.00
2018-05-08T00:32:08.035Z,0.00
2018-05-08T00:33:08.029Z,0.00
2018-05-08T00:34:08.023Z,0.00
2018-05-08T00:35:08.017Z,0.00
2018-05-08T00:36:08.011Z,0.00
2018-05-08T00:37:08.006Z,0.00
2018-05-08T00:38:07.999Z,0.00
2018-05-08T00:39:07.991Z,0.00
2018-05-08T00:40:07.986Z,0.00
2018-05-08T00:41:07.979Z,0.00
2018-05-08T00:42:07.973Z,0.00
2018-05-08T00:43:07.966Z,0.00
2018-05-08T00:44:07.960Z,0.00
2018-05-08T00:45:07.955Z,0.00
2018-05-08T00:46:07.948Z,0.00
2018-05-08T00:47:07.941Z,0.00
2018-05-08T00:48:07.935Z,0.00
2018-05-08T00:49:07.929Z,0.00
2018-05-08T00:50:07.923Z,0.00
2018-05-08T00:51:07.916Z,0.00
2018-05-08T00:52:07.910Z,0.00
2018-05-08T00:53:07.905Z,0.00
2018-05-08T00:54:07.898Z,0.00
2018-05-08T00:55:07.891Z,0.00
2018-05-08T00:56:07.885Z,0.00
2018-05-08T00:57:07.881Z,0.00
2018-05-08T00:58:07.873Z,0.00
2018-05-08T00:59:07.866Z,0.00
2018-05-08T01:00:07.860Z,0.00
2018-05-08T01:01:07.854Z,0.00
2018-05-08T01:02:07.848Z,0.00
2018-05-08T01:03:07.841Z,0.00
2018-05-08T01:04:07.836Z,0.00
2018-05-08T01:05:07.829Z,0.00
2018-05-08T01:06:07.824Z,0.00
2018-05-08T01:07:07.816Z,0.00
2018-05-08T01:08:07.810Z,0.00
2018-05-08T01:09:07.804Z,0.00
2018-05-08T01:10:07.798Z,0.00
2018-05-08T01:11:07.791Z,0.00
2018-05-08T01:12:07.787Z,0.00
2018-05-08T01:13:07.779Z,0.00
2018-05-08T01:14:07.774Z,0.00
2018-05-08T01:15:07.767Z,0.00
2018-05-08T01:16:07.764Z,0.00
2018-05-08T01:17:07.935Z,0.00
2018-05-08T01:18:07.748Z,0.00
2018-05-08T01:19:07.742Z,0.00
2018-05-08T01:20:07.736Z,0.00
2018-05-08T01:21:07.730Z,0.00
2018-05-08T01:22:07.727Z,0.00
2018-05-08T01:23:07.717Z,0.00
2018-05-08T01:24:07.711Z,0.00
2018-05-08T01:25:07.705Z,0.00
2018-05-08T01:26:07.700Z,0.00
2018-05-08T01:27:07.691Z,0.00
2018-05-08T01:28:07.686Z,0.00
2018-05-08T01:29:07.679Z,0.00
2018-05-08T01:30:07.675Z,0.00
2018-05-08T01:31:07.666Z,0.00
2018-05-08T01:32:07.660Z,0.00
2018-05-08T01:33:07.654Z,0.00
2018-05-08T01:34:07.648Z,0.00
2018-05-08T01:35:07.642Z,0.00
2018-05-08T01:36:07.635Z,0.00
2018-05-08T01:37:07.629Z,0.00
2018-05-08T01:38:07.627Z,0.00
2018-05-08T01:39:07.616Z,0.00
2018-05-08T01:40:07.610Z,0.00
2018-05-08T01:41:07.608Z,0.00
2018-05-08T01:42:07.598Z,0.00
2018-05-08T01:43:07.590Z,0.00
2018-05-08T01:44:07.584Z,0.00
2018-05-08T01:45:07.578Z,0.00
2018-05-08T01:46:07.575Z,0.00
2018-05-08T01:47:07.564Z,0.00
2018-05-08T01:48:07.626Z,0.00
2018-05-08T01:49:07.552Z,0.00
2018-05-08T01:50:07.545Z,0.00
2018-05-08T01:51:07.539Z,0.00
2018-05-08T01:52:07.532Z,0.00
2018-05-08T01:53:07.528Z,0.00
2018-05-08T01:54:07.520Z,0.00
2018-05-08T01:55:07.513Z,0.00
2018-05-08T01:56:07.506Z,0.00
2018-05-08T01:57:07.500Z,0.00
2018-05-08T01:58:07.493Z,0.00
2018-05-08T01:59:07.486Z,0.00
2018-05-08T02:00:07.484Z,0.00
2018-05-08T02:01:07.473Z,0.00
2018-05-08T02:02:07.468Z,0.00
2018-05-08T02:03:07.460Z,0.00
2018-05-08T02:04:07.454Z,0.00
2018-05-08T02:05:07.448Z,0.00
2018-05-08T02:06:07.442Z,0.00
2018-05-08T02:07:07.437Z,0.00
2018-05-08T02:08:07.427Z,0.00
2018-05-08T02:09:07.422Z,0.00
2018-05-08T02:10:07.414Z,0.00
2018-05-08T02:11:07.407Z,0.00
2018-05-08T02:12:07.401Z,0.00
2018-05-08T02:13:07.395Z,0.00
2018-05-08T02:14:07.388Z,0.00
2018-05-08T02:15:07.380Z,0.00
2018-05-08T02:16:07.374Z,0.00
2018-05-08T02:17:07.368Z,0.00
2018-05-08T02:18:07.361Z,0.00
2018-05-08T02:19:07.355Z,0.00
2018-05-08T02:20:07.349Z,0.00
2018-05-08T02:21:07.341Z,0.00
2018-05-08T02:22:07.336Z,0.00
2018-05-08T02:23:07.328Z,0.00
2018-05-08T02:24:07.321Z,0.00
2018-05-08T02:25:07.317Z,0.00
2018-05-08T02:26:07.310Z,0.00
2018-05-08T02:27:07.305Z,0.00
2018-05-08T02:28:07.294Z,0.00
2018-05-08T02:29:07.288Z,0.00
2018-05-08T02:30:07.282Z,0.00
2018-05-08T02:31:07.275Z,0.00
2018-05-08T02:32:07.268Z,0.00
2018-05-08T02:33:07.261Z,0.00
2018-05-08T02:34:07.255Z,0.00
2018-05-08T02:35:07.248Z,0.00
2018-05-08T02:36:07.241Z,0.00
2018-05-08T02:37:07.234Z,0.00
2018-05-08T02:38:07.228Z,0.00
2018-05-08T02:39:07.220Z,0.00
2018-05-08T02:40:07.218Z,0.00
2018-05-08T02:41:07.207Z,0.00
2018-05-08T02:42:07.202Z,0.00
2018-05-08T02:43:07.193Z,0.00
2018-05-08T02:44:07.186Z,0.00
2018-05-08T02:45:07.180Z,0.00
2018-05-08T02:46:07.175Z,0.00
2018-05-08T02:47:07.166Z,0.00
2018-05-08T02:48:07.159Z,0.00
2018-05-08T02:49:07.152Z,0.00
2018-05-08T02:50:07.146Z,0.00
2018-05-08T02:51:07.137Z,0.00
2018-05-08T02:52:07.132Z,0.00
2018-05-08T02:53:07.125Z,0.00
2018-05-08T02:54:07.118Z,0.00
2018-05-08T02:55:07.110Z,0.00
2018-05-08T02:56:07.106Z,0.00
2018-05-08T02:57:07.097Z,0.00
2018-05-08T02:58:07.091Z,0.00
2018-05-08T02:59:07.083Z,0.00
2018-05-08T03:00:07.076Z,0.00
2018-05-08T03:01:07.070Z,0.00
2018-05-08T03:02:07.063Z,0.00
2018-05-08T03:03:07.056Z,0.00
2018-05-08T03:04:07.049Z,0.00
2018-05-08T03:05:07.045Z,0.00
2018-05-08T03:06:07.036Z,0.00
2018-05-08T03:07:07.030Z,0.00
2018-05-08T03:08:07.021Z,0.00
2018-05-08T03:09:07.015Z,0.00
2018-05-08T03:10:07.009Z,0.00
2018-05-08T03:11:07.001Z,0.00
2018-05-08T03:12:06.993Z,0.00
2018-05-08T03:13:06.987Z,0.00
2018-05-08T03:14:06.979Z,0.00
2018-05-08T03:15:06.971Z,0.00
2018-05-08T03:16:06.965Z,4.00
2018-05-08T03:17:06.957Z,4.00
2018-05-08T03:18:06.951Z,4.00
2018-05-08T03:19:06.943Z,4.00
2018-05-08T03:20:06.936Z,0.00
2018-05-08T03:21:06.935Z,0.00
2018-05-08T03:22:06.923Z,4.00
2018-05-08T03:23:06.915Z,4.00
2018-05-08T03:24:06.908Z,0.00
2018-05-08T03:25:06.901Z,4.00
2018-05-08T03:26:06.894Z,4.00
2018-05-08T03:27:06.886Z,4.00
2018-05-08T03:28:06.880Z,8.00
2018-05-08T03:29:06.872Z,8.00
2018-05-08T03:30:06.873Z,8.00
2018-05-08T03:31:06.857Z,8.00
2018-05-08T03:32:06.851Z,12.00
2018-05-08T03:33:06.844Z,12.00
2018-05-08T03:34:06.839Z,12.00
2018-05-08T03:35:06.830Z,12.00
2018-05-08T03:36:06.822Z,20.00
2018-05-08T03:37:06.816Z,20.00
2018-05-08T03:38:06.808Z,24.00
2018-05-08T03:39:06.800Z,28.00
2018-05-08T03:40:06.795Z,32.00
2018-05-08T03:41:06.787Z,36.00
2018-05-08T03:42:06.780Z,40.00
2018-05-08T03:43:06.772Z,48.00
2018-05-08T03:44:06.765Z,52.00
2018-05-08T03:45:06.758Z,60.00
2018-05-08T03:46:06.759Z,68.00
2018-05-08T03:47:06.743Z,76.00
2018-05-08T03:48:06.737Z,80.00
2018-05-08T03:49:06.729Z,92.00
2018-05-08T03:50:06.721Z,104.00
2018-05-08T03:51:06.714Z,116.00
2018-05-08T03:52:06.707Z,128.00
2018-05-08T03:53:06.702Z,140.00
2018-05-08T03:54:06.692Z,152.00
2018-05-08T03:55:06.685Z,168.00
2018-05-08T03:56:06.677Z,184.00
2018-05-08T03:57:06.670Z,200.00
2018-05-08T03:58:06.667Z,220.00
2018-05-08T03:59:06.655Z,236.00
2018-05-08T04:00:06.648Z,252.00
2018-05-08T04:01:06.640Z,272.00
2018-05-08T04:02:06.634Z,292.00
2018-05-08T04:03:06.626Z,316.00
2018-05-08T04:04:06.619Z,340.00
2018-05-08T04:05:06.612Z,360.00
2018-05-08T04:06:06.605Z,384.00
2018-05-08T04:07:06.596Z,408.00
2018-05-08T04:08:06.590Z,432.00
2018-05-08T04:09:06.583Z,460.00
2018-05-08T04:10:06.576Z,488.00
2018-05-08T04:11:06.567Z,516.00
2018-05-08T04:12:06.560Z,544.00
2018-05-08T04:13:06.553Z,572.00
2018-05-08T04:14:06.546Z,600.00
2018-05-08T04:15:06.557Z,628.00
2018-05-08T04:16:06.533Z,660.00
2018-05-08T04:17:06.526Z,692.00
2018-05-08T04:18:06.517Z,720.00
2018-05-08T04:19:06.509Z,748.00
2018-05-08T04:20:06.502Z,780.00
2018-05-08T04:21:06.564Z,812.00
2018-05-08T04:22:06.488Z,840.00
2018-05-08T04:23:06.482Z,872.00
2018-05-08T04:24:06.473Z,904.00
2018-05-08T04:25:06.466Z,932.00
2018-05-08T04:26:06.460Z,964.00
2018-05-08T04:27:06.513Z,992.00
2018-05-08T04:28:06.444Z,1020.00
2018-05-08T04:29:06.438Z,1052.00
2018-05-08T04:30:06.429Z,1088.00
2018-05-08T04:31:06.428Z,1120.00
2018-05-08T04:32:06.415Z,1148.00
2018-05-08T04:33:06.408Z,1180.00
2018-05-08T04:34:06.403Z,1208.00
2018-05-08T04:35:06.394Z,1232.00
2018-05-08T04:36:06.385Z,1260.00
2018-05-08T04:37:06.378Z,1288.00
2018-05-08T04:38:06.372Z,1312.00
2018-05-08T04:39:06.364Z,1344.00
2018-05-08T04:40:06.358Z,1368.00
2018-05-08T04:41:06.352Z,1396.00
2018-05-08T04:42:06.342Z,1428.00
2018-05-08T04:43:06.335Z,1456.00
2018-05-08T04:44:06.362Z,1484.00
2018-05-08T04:45:06.320Z,1508.00
2018-05-08T04:46:06.314Z,1532.00
2018-05-08T04:47:06.305Z,1556.00
2018-05-08T04:48:06.298Z,1580.00
2018-05-08T04:49:06.292Z,1604.00
2018-05-08T04:50:06.291Z,1628.00
2018-05-08T04:51:06.277Z,1656.00
2018-05-08T04:52:06.270Z,1680.00
2018-05-08T04:53:06.263Z,1700.00
2018-05-08T04:54:06.258Z,1720.00
2018-05-08T04:55:06.248Z,1744.00
2018-05-08T04:56:06.241Z,1764.00
2018-05-08T04:57:06.244Z,1788.00
2018-05-08T04:58:06.228Z,1812.00
2018-05-08T04:59:06.220Z,1836.00
2018-05-08T05:00:06.213Z,1860.00
2018-05-08T05:01:06.210Z,1884.00
2018-05-08T05:02:06.199Z,1908.00
2018-05-08T05:03:06.192Z,1936.00
2018-05-08T05:04:06.185Z,1964.00
2018-05-08T05:05:06.178Z,1984.00
2018-05-08T05:06:06.171Z,2012.00
2018-05-08T05:07:06.163Z,2040.00
2018-05-08T05:08:06.157Z,2064.00
2018-05-08T05:09:06.150Z,2088.00
2018-05-08T05:10:06.143Z,2116.00
2018-05-08T05:11:06.146Z,2144.00
2018-05-08T05:12:06.129Z,2176.00
2018-05-08T05:13:06.123Z,2204.00
2018-05-08T05:14:06.116Z,2236.00
2018-05-08T05:15:06.108Z,2268.00
2018-05-08T05:16:06.102Z,2304.00
2018-05-08T05:17:06.100Z,2344.00
2018-05-08T05:18:06.089Z,2376.00
2018-05-08T05:19:06.157Z,2416.00
2018-05-08T05:20:06.078Z,2452.00
2018-05-08T05:21:06.067Z,2488.00
2018-05-08T05:22:06.060Z,2524.00
2018-05-08T05:23:06.052Z,2560.00
2018-05-08T05:24:06.046Z,2604.00
2018-05-08T05:25:06.041Z,2660.00
2018-05-08T05:26:06.033Z,2720.00
2018-05-08T05:27:06.025Z,2776.00
2018-05-08T05:28:06.019Z,2828.00
2018-05-08T05:29:06.013Z,2876.00
2018-05-08T05:30:06.008Z,2912.00
2018-05-08T05:31:05.999Z,2948.00
2018-05-08T05:32:05.992Z,2988.00
2018-05-08T05:33:05.986Z,3116.00
2018-05-08T05:34:05.982Z,3332.00
2018-05-08T05:35:05.973Z,3296.00
2018-05-08T05:36:05.966Z,3124.00
2018-05-08T05:37:05.960Z,3156.00
2018-05-08T05:38:05.956Z,3188.00
2018-05-08T05:39:05.946Z,3216.00
2018-05-08T05:40:05.940Z,3248.00
2018-05-08T05:41:05.934Z,3280.00
2018-05-08T05:42:05.928Z,3312.00
2018-05-08T05:43:05.921Z,3348.00
2018-05-08T05:44:05.915Z,3384.00
2018-05-08T05:45:05.909Z,3412.00
2018-05-08T05:46:05.903Z,3448.00
2018-05-08T05:47:05.896Z,3480.00
2018-05-08T05:48:05.890Z,3524.00
2018-05-08T05:49:05.885Z,3552.00
2018-05-08T05:50:05.878Z,3584.00
2018-05-08T05:51:05.871Z,3624.00
2018-05-08T05:52:05.871Z,3656.00
2018-05-08T05:53:05.863Z,3700.00
2018-05-08T05:54:05.854Z,3728.00
2018-05-08T05:55:05.847Z,3772.00
2018-05-08T05:56:05.844Z,3808.00
2018-05-08T05:57:05.836Z,3844.00
2018-05-08T05:58:05.831Z,3884.00
2018-05-08T05:59:05.824Z,3936.00
2018-05-08T06:00:05.907Z,3980.00
2018-05-08T06:01:05.812Z,4020.00
2018-05-08T06:02:05.807Z,4072.00
2018-05-08T06:03:05.800Z,4124.00
2018-05-08T06:04:05.801Z,4172.00
2018-05-08T06:05:05.789Z,4224.00
2018-05-08T06:06:05.784Z,4276.00
2018-05-08T06:07:05.778Z,4328.00
2018-05-08T06:08:05.774Z,4384.00
2018-05-08T06:09:05.766Z,4436.00
2018-05-08T06:10:05.762Z,4488.00
2018-05-08T06:11:05.755Z,4544.00
2018-05-08T06:12:05.750Z,4596.00
2018-05-08T06:13:05.759Z,4652.00
2018-05-08T06:14:05.740Z,4696.00
2018-05-08T06:15:05.734Z,4756.00
2018-05-08T06:16:05.729Z,4812.00
2018-05-08T06:17:05.723Z,4876.00
2018-05-08T06:18:05.722Z,4944.00
2018-05-08T06:19:05.713Z,5000.00
2018-05-08T06:20:05.707Z,5064.00
2018-05-08T06:21:05.703Z,5124.00
2018-05-08T06:22:05.698Z,5200.00
2018-05-08T06:23:05.692Z,5268.00
2018-05-08T06:24:05.691Z,5324.00
2018-05-08T06:25:05.684Z,5388.00
2018-05-08T06:26:05.679Z,5440.00
2018-05-08T06:27:05.674Z,5528.00
2018-05-08T06:28:05.670Z,5644.00
2018-05-08T06:29:05.666Z,5748.00
2018-05-08T06:30:05.665Z,5832.00
2018-05-08T06:31:05.656Z,5904.00
2018-05-08T06:32:05.652Z,5964.00
2018-05-08T06:33:05.648Z,6024.00
2018-05-08T06:34:05.644Z,6092.00
2018-05-08T06:35:05.639Z,6148.00
2018-05-08T06:36:05.642Z,6172.00
2018-05-08T06:37:05.633Z,6232.00
2018-05-08T06:38:05.627Z,6336.00
2018-05-08T06:39:05.623Z,6392.00
2018-05-08T06:40:05.623Z,6908.00
2018-05-08T06:41:05.615Z,8228.00
2018-05-08T06:42:05.611Z,7876.00
2018-05-08T06:43:05.606Z,6964.00
2018-05-08T06:44:05.607Z,6664.00
2018-05-08T06:45:05.600Z,6688.00
2018-05-08T06:46:05.623Z,7204.00
2018-05-08T06:47:05.593Z,15264.00
2018-05-08T06:48:05.588Z,13712.00
2018-05-08T06:49:05.590Z,15712.00
2018-05-08T06:50:05.582Z,27680.00
2018-05-08T06:51:05.577Z,29504.00
2018-05-08T06:52:05.576Z,25760.00
2018-05-08T06:53:05.571Z,14348.00
2018-05-08T06:54:05.568Z,7308.00
2018-05-08T06:55:05.564Z,7224.00
2018-05-08T06:56:05.562Z,7596.00
2018-05-08T06:57:05.560Z,12488.00
2018-05-08T06:58:05.556Z,14660.00
2018-05-08T06:59:05.553Z,11592.00
2018-05-08T07:00:05.551Z,15424.00
2018-05-08T07:01:05.548Z,18976.00
2018-05-08T07:02:05.546Z,33248.00
2018-05-08T07:03:05.543Z,51232.00
2018-05-08T07:04:05.541Z,53824.00
2018-05-08T07:05:05.539Z,53248.00
2018-05-08T07:06:05.540Z,52928.00
2018-05-08T07:07:05.534Z,53856.00
2018-05-08T07:08:05.533Z,52512.00
2018-05-08T07:09:05.579Z,54560.00
2018-05-08T07:10:05.531Z,55840.00
2018-05-08T07:11:05.530Z,53920.00
2018-05-08T07:12:05.530Z,55040.00
2018-05-08T07:13:05.531Z,53984.00
2018-05-08T07:14:05.533Z,54400.00
2018-05-08T07:15:05.537Z,55936.00
2018-05-08T07:16:05.762Z,57088.00
2018-05-08T07:17:05.540Z,56512.00
2018-05-08T07:18:05.542Z,57568.00
2018-05-08T07:19:05.545Z,58112.00
2018-05-08T07:20:05.549Z,57664.00
2018-05-08T07:21:05.556Z,57024.00
2018-05-08T07:22:05.559Z,58688.00
2018-05-08T07:23:05.566Z,57408.00
2018-05-08T07:24:05.579Z,57664.00
2018-05-08T07:25:05.576Z,61056.00
2018-05-08T07:26:05.582Z,57888.00
2018-05-08T07:27:05.588Z,56448.00
2018-05-08T07:28:05.599Z,59328.00
2018-05-08T07:29:05.604Z,59424.00
2018-05-08T07:30:05.689Z,58816.00
2018-05-08T07:31:05.619Z,60128.00
2018-05-08T07:32:05.631Z,60928.00
2018-05-08T07:33:05.639Z,57664.00
2018-05-08T07:34:05.701Z,59808.00
2018-05-08T07:35:05.657Z,61760.00
2018-05-08T07:36:05.663Z,61024.00
2018-05-08T07:37:05.673Z,60800.00
2018-05-08T07:38:05.683Z,63072.00
2018-05-08T07:39:05.692Z,64928.00
2018-05-08T07:40:05.700Z,63232.00
2018-05-08T07:41:05.711Z,63904.00
2018-05-08T07:42:05.721Z,67424.00
2018-05-08T07:43:05.730Z,64224.00
2018-05-08T07:44:05.740Z,63168.00
2018-05-08T07:45:05.751Z,62656.00
2018-05-08T07:46:05.762Z,65440.00
2018-05-08T07:47:05.771Z,63808.00
2018-05-08T07:48:05.782Z,64352.00
2018-05-08T07:49:05.792Z,66848.00
2018-05-08T07:50:05.804Z,65216.00
2018-05-08T07:51:05.814Z,62720.00
2018-05-08T07:52:05.824Z,67776.00
2018-05-08T07:53:05.835Z,67904.00
2018-05-08T07:54:05.847Z,66080.00
2018-05-08T07:55:05.858Z,64768.00
2018-05-08T07:56:05.869Z,68384.00
2018-05-08T07:57:05.881Z,68224.00
2018-05-08T07:58:05.894Z,65408.00
2018-05-08T07:59:05.907Z,67392.00
2018-05-08T08:00:05.918Z,64800.00
2018-05-08T08:01:05.930Z,67040.00
2018-05-08T08:02:05.943Z,66208.00
2018-05-08T08:03:05.954Z,67648.00
2018-05-08T08:04:05.968Z,71776.00
2018-05-08T08:05:05.981Z,70016.00
2018-05-08T08:06:05.993Z,70016.00
2018-05-08T08:07:06.005Z,70752.00
2018-05-08T08:08:06.018Z,70208.00
2018-05-08T08:09:06.032Z,72032.00
2018-05-08T08:10:06.044Z,72768.00
2018-05-08T08:11:06.057Z,73024.00
2018-05-08T08:12:06.070Z,71392.00
2018-05-08T08:13:06.084Z,65248.00
2018-05-08T08:14:06.097Z,70304.00
2018-05-08T08:15:06.109Z,67712.00
2018-05-08T08:16:06.122Z,65536.00
2018-05-08T08:17:06.135Z,68864.00
2018-05-08T08:18:06.152Z,70112.00
2018-05-08T08:19:06.197Z,67264.00
2018-05-08T08:20:06.185Z,65280.00
2018-05-08T08:21:06.188Z,68896.00
2018-05-08T08:22:06.202Z,70240.00
2018-05-08T08:23:06.214Z,67392.00
2018-05-08T08:24:06.229Z,64544.00
2018-05-08T08:25:06.243Z,71008.00
2018-05-08T08:26:06.257Z,70528.00
2018-05-08T08:27:06.271Z,70752.00
2018-05-08T08:28:06.286Z,65312.00
2018-05-08T08:29:06.301Z,71552.00
2018-05-08T08:30:06.315Z,67008.00
2018-05-08T08:31:06.332Z,66496.00
2018-05-08T08:32:06.345Z,66944.00
2018-05-08T08:33:06.360Z,75072.00
2018-05-08T08:34:06.375Z,72032.00
2018-05-08T08:35:06.390Z,74688.00
2018-05-08T08:36:06.407Z,74080.00
2018-05-08T08:37:06.420Z,72928.00
2018-05-08T08:38:06.436Z,71328.00
2018-05-08T08:39:06.455Z,77760.00
2018-05-08T08:40:06.466Z,78848.00
2018-05-08T08:41:06.481Z,78784.00
2018-05-08T08:42:06.496Z,79872.00
2018-05-08T08:43:06.510Z,82400.00
2018-05-08T08:44:06.526Z,84512.00
2018-05-08T08:45:06.540Z,80896.00
2018-05-08T08:46:06.555Z,81632.00
2018-05-08T08:47:06.569Z,83296.00
2018-05-08T08:48:06.584Z,87392.00
2018-05-08T08:49:06.599Z,93088.00
2018-05-08T08:50:06.614Z,87680.00
2018-05-08T08:51:06.628Z,83424.00
2018-05-08T08:52:06.643Z,99488.00
2018-05-08T08:53:06.657Z,95744.00
2018-05-08T08:54:06.673Z,85696.00
2018-05-08T08:55:06.688Z,88032.00
2018-05-08T08:56:06.745Z,97152.00
2018-05-08T08:57:06.716Z,90080.00
2018-05-08T08:58:06.731Z,91936.00
2018-05-08T08:59:06.744Z,91040.00
2018-05-08T09:00:06.759Z,90752.00
2018-05-08T09:01:06.778Z,96192.00
2018-05-08T09:02:06.804Z,88608.00
2018-05-08T09:03:06.805Z,93184.00
2018-05-08T09:04:06.899Z,88992.00
2018-05-08T09:05:06.834Z,86368.00
2018-05-08T09:06:06.850Z,81152.00
2018-05-08T09:07:06.864Z,73824.00
2018-05-08T09:08:06.880Z,79168.00
2018-05-08T09:09:06.896Z,79872.00
2018-05-08T09:10:06.911Z,70304.00
2018-05-08T09:11:06.964Z,74048.00
2018-05-08T09:12:06.941Z,79744.00
2018-05-08T09:13:06.956Z,75904.00
2018-05-08T09:14:06.984Z,66368.00
2018-05-08T09:15:06.987Z,69440.00
2018-05-08T09:16:07.007Z,66336.00
2018-05-08T09:17:07.018Z,64800.00
2018-05-08T09:18:07.034Z,68128.00
2018-05-08T09:19:07.054Z,66304.00
2018-05-08T09:20:07.065Z,65568.00
2018-05-08T09:21:07.081Z,67680.00
2018-05-08T09:22:07.097Z,64832.00
2018-05-08T09:23:07.112Z,63552.00
2018-05-08T09:24:07.129Z,65440.00
2018-05-08T09:25:07.145Z,62048.00
2018-05-08T09:26:07.162Z,64384.00
2018-05-08T09:27:07.177Z,62848.00
2018-05-08T09:28:07.194Z,65408.00
2018-05-08T09:29:07.212Z,67584.00
2018-05-08T09:30:07.231Z,67392.00
2018-05-08T09:31:07.248Z,69120.00
2018-05-08T09:32:07.269Z,69888.00
2018-05-08T09:33:07.280Z,67584.00
2018-05-08T09:34:07.299Z,76960.00
2018-05-08T09:35:07.321Z,73824.00
2018-05-08T09:36:07.332Z,74496.00
2018-05-08T09:37:07.354Z,72896.00
2018-05-08T09:38:07.368Z,70752.00
2018-05-08T09:39:07.387Z,72096.00
2018-05-08T09:40:07.404Z,74720.00
2018-05-08T09:41:07.423Z,71072.00
2018-05-08T09:42:07.441Z,78272.00
2018-05-08T09:43:07.459Z,76352.00
2018-05-08T09:44:07.480Z,73024.00
2018-05-08T09:45:07.496Z,73472.00
2018-05-08T09:46:07.516Z,71872.00
2018-05-08T09:47:07.533Z,75520.00
2018-05-08T09:48:07.552Z,71680.00
2018-05-08T09:49:07.625Z,72128.00
2018-05-08T09:50:07.590Z,70304.00
2018-05-08T09:51:07.608Z,69472.00
2018-05-08T09:52:07.628Z,71488.00
2018-05-08T09:53:07.647Z,70432.00
2018-05-08T09:54:07.700Z,70784.00
2018-05-08T09:55:07.685Z,69280.00
2018-05-08T09:56:07.704Z,70336.00
2018-05-08T09:57:07.724Z,70208.00
2018-05-08T09:58:07.744Z,74432.00
2018-05-08T09:59:07.762Z,70624.00
2018-05-08T10:00:07.782Z,70720.00
2018-05-08T10:01:07.836Z,68832.00
2018-05-08T10:02:07.821Z,73248.00
2018-05-08T10:03:07.839Z,71072.00
2018-05-08T10:04:07.860Z,68576.00
2018-05-08T10:05:07.879Z,70208.00
2018-05-08T10:06:07.907Z,70528.00
2018-05-08T10:07:07.917Z,71232.00
2018-05-08T10:08:07.938Z,73568.00
2018-05-08T10:09:07.957Z,70976.00
2018-05-08T10:10:07.976Z,70688.00
2018-05-08T10:11:07.995Z,72448.00
2018-05-08T10:12:08.014Z,71872.00
2018-05-08T10:13:08.034Z,72352.00
2018-05-08T10:14:08.053Z,73184.00
2018-05-08T10:15:08.074Z,69088.00
2018-05-08T10:16:08.091Z,71680.00
2018-05-08T10:17:08.111Z,73824.00
2018-05-08T10:18:08.131Z,74016.00
2018-05-08T10:19:08.153Z,77504.00
2018-05-08T10:20:08.168Z,73248.00
2018-05-08T10:21:08.189Z,70208.00
2018-05-08T10:22:08.210Z,75552.00
2018-05-08T10:23:08.225Z,72736.00
2018-05-08T10:24:08.245Z,76096.00
2018-05-08T10:25:08.264Z,71904.00
2018-05-08T10:26:08.283Z,72768.00
2018-05-08T10:27:08.301Z,70592.00
2018-05-08T10:28:08.319Z,73408.00
2018-05-08T10:29:08.340Z,72480.00
2018-05-08T10:30:08.358Z,72768.00
2018-05-08T10:31:08.376Z,70496.00
2018-05-08T10:32:08.396Z,70016.00
2018-05-08T10:33:08.414Z,73248.00
2018-05-08T10:34:08.433Z,71840.00
2018-05-08T10:35:08.450Z,67840.00
2018-05-08T10:36:08.469Z,66880.00
2018-05-08T10:37:08.490Z,66560.00
2018-05-08T10:38:08.507Z,68736.00
2018-05-08T10:39:08.525Z,67648.00
2018-05-08T10:40:08.543Z,70080.00
2018-05-08T10:41:08.562Z,65152.00
2018-05-08T10:42:08.581Z,67904.00
2018-05-08T10:43:08.603Z,67936.00
2018-05-08T10:44:08.617Z,66528.00
2018-05-08T10:45:08.636Z,68320.00
2018-05-08T10:46:08.655Z,67040.00
2018-05-08T10:47:08.673Z,69216.00
2018-05-08T10:48:08.693Z,67424.00
2018-05-08T10:49:08.711Z,66624.00
2018-05-08T10:50:08.730Z,69504.00
2018-05-08T10:51:08.748Z,66528.00
2018-05-08T10:52:08.767Z,67072.00
2018-05-08T10:53:08.785Z,69184.00
2018-05-08T10:54:08.804Z,68032.00
2018-05-08T10:55:08.822Z,70176.00
2018-05-08T10:56:08.841Z,70336.00
2018-05-08T10:57:08.898Z,73184.00
2018-05-08T10:58:08.879Z,78048.00
2018-05-08T10:59:08.902Z,82144.00
2018-05-08T11:00:08.917Z,79776.00
2018-05-08T11:01:08.934Z,78976.00
2018-05-08T11:02:08.953Z,81216.00
2018-05-08T11:03:08.971Z,77088.00
2018-05-08T11:04:08.990Z,76416.00
2018-05-08T11:05:09.009Z,78400.00
2018-05-08T11:06:09.029Z,82176.00
2018-05-08T11:07:09.047Z,82272.00
2018-05-08T11:08:09.065Z,82944.00
2018-05-08T11:09:09.084Z,84416.00
2018-05-08T11:10:09.104Z,83488.00
2018-05-08T11:11:09.122Z,83552.00
2018-05-08T11:12:09.146Z,81632.00
2018-05-08T11:13:09.158Z,76672.00
2018-05-08T11:14:09.177Z,76288.00
2018-05-08T11:15:09.196Z,73248.00
2018-05-08T11:16:09.215Z,73376.00
2018-05-08T11:17:09.232Z,74304.00
2018-05-08T11:18:09.251Z,75552.00
2018-05-08T11:19:09.269Z,74016.00
2018-05-08T11:20:09.288Z,71424.00
2018-05-08T11:21:09.307Z,73344.00
2018-05-08T11:22:09.325Z,72960.00
2018-05-08T11:23:09.343Z,69696.00
2018-05-08T11:24:09.361Z,68736.00
2018-05-08T11:25:09.380Z,68960.00
2018-05-08T11:26:09.399Z,67136.00
2018-05-08T11:27:09.416Z,68416.00
2018-05-08T11:28:09.438Z,68320.00
2018-05-08T11:29:09.455Z,66752.00
2018-05-08T11:30:09.473Z,68352.00
2018-05-08T11:31:09.490Z,68448.00
2018-05-08T11:32:09.510Z,71456.00
2018-05-08T11:33:09.528Z,73312.00
2018-05-08T11:34:09.546Z,74208.00
2018-05-08T11:35:09.563Z,75808.00
2018-05-08T11:36:09.581Z,79008.00
2018-05-08T11:37:09.600Z,79232.00
2018-05-08T11:38:09.617Z,74528.00
2018-05-08T11:39:09.705Z,74240.00
2018-05-08T11:40:09.652Z,75552.00
2018-05-08T11:41:09.672Z,75104.00
2018-05-08T11:42:09.688Z,74336.00
2018-05-08T11:43:09.706Z,73088.00
2018-05-08T11:44:09.721Z,73344.00
2018-05-08T11:45:09.739Z,72672.00
2018-05-08T11:46:09.756Z,71904.00
2018-05-08T11:47:09.772Z,75296.00
2018-05-08T11:48:09.791Z,77024.00
2018-05-08T11:49:09.805Z,78016.00
2018-05-08T11:50:09.857Z,76416.00
2018-05-08T11:51:09.837Z,81952.00
2018-05-08T11:52:09.854Z,80384.00
2018-05-08T11:53:09.870Z,79552.00
2018-05-08T11:54:09.895Z,80480.00
2018-05-08T11:55:09.902Z,79840.00
2018-05-08T11:56:09.925Z,79072.00
2018-05-08T11:57:09.936Z,76480.00
2018-05-08T11:58:09.950Z,73344.00
2018-05-08T11:59:09.966Z,76800.00
2018-05-08T12:00:09.982Z,72128.00
2018-05-08T12:01:10.002Z,68032.00
2018-05-08T12:02:10.013Z,66944.00
2018-05-08T12:03:10.028Z,64480.00
2018-05-08T12:04:10.044Z,64256.00
2018-05-08T12:05:10.061Z,61152.00
2018-05-08T12:06:10.075Z,57312.00
2018-05-08T12:07:10.089Z,55520.00
2018-05-08T12:08:10.105Z,54112.00
2018-05-08T12:09:10.201Z,52480.00
2018-05-08T12:10:10.139Z,50976.00
2018-05-08T12:11:10.151Z,50016.00
2018-05-08T12:12:10.166Z,49568.00
2018-05-08T12:13:10.183Z,49312.00
2018-05-08T12:14:10.199Z,49024.00
2018-05-08T12:15:10.217Z,48960.00
2018-05-08T12:16:10.233Z,48544.00
2018-05-08T12:17:10.245Z,48288.00